sensor_id;sensor_type;location;lat;lon;timestamp;pressure;altitude;pressure_sealevel;temperature;humidity
35888;BME280;21990;42.540;23.496;2023-01-01T00:00:06;94979.25;;;-0.01;88.22
35888;BME280;21990;42.540;23.496;2023-01-01T00:02:32;94984.72;;;0.03;88.43
35888;BME280;21990;42.540;23.496;2023-01-01T00:04:58;94982.38;;;0.02;88.99
35888;BME280;21990;42.540;23.496;2023-01-01T00:07:23;94983.44;;;0.08;89.88
35888;BME280;21990;42.540;23.496;2023-01-01T00:09:49;94992.88;;;0.10;90.35
35888;BME280;21990;42.540;23.496;2023-01-01T00:12:33;95000.69;;;0.15;90.48
35888;BME280;21990;42.540;23.496;2023-01-01T00:14:58;94993.03;;;0.03;90.57
35888;BME280;21990;42.540;23.496;2023-01-01T00:17:24;94992.88;;;0.10;89.16
35888;BME280;21990;42.540;23.496;2023-01-01T00:19:50;94990.19;;;0.07;88.47
35888;BME280;21990;42.540;23.496;2023-01-01T00:22:16;94986.88;;;-0.05;88.46
35888;BME280;21990;42.540;23.496;2023-01-01T00:24:42;94987.00;;;-0.12;88.88
35888;BME280;21990;42.540;23.496;2023-01-01T00:27:07;94988.94;;;-0.09;89.17
35888;BME280;21990;42.540;23.496;2023-01-01T00:29:33;94992.91;;;-0.10;88.91
35888;BME280;21990;42.540;23.496;2023-01-01T00:31:59;94996.25;;;-0.18;88.65
35888;BME280;21990;42.540;23.496;2023-01-01T00:34:24;94996.00;;;-0.24;89.14
35888;BME280;21990;42.540;23.496;2023-01-01T00:36:50;95005.06;;;-0.23;89.54
35888;BME280;21990;42.540;23.496;2023-01-01T00:39:16;95006.63;;;-0.22;90.08
35888;BME280;21990;42.540;23.496;2023-01-01T00:41:41;95003.09;;;-0.23;90.16
35888;BME280;21990;42.540;23.496;2023-01-01T00:44:07;95002.03;;;-0.29;90.26
35888;BME280;21990;42.540;23.496;2023-01-01T00:46:32;95003.59;;;-0.28;90.10
35888;BME280;21990;42.540;23.496;2023-01-01T00:48:58;95005.59;;;-0.28;89.51
35888;BME280;21990;42.540;23.496;2023-01-01T00:51:23;95007.16;;;-0.27;88.97
35888;BME280;21990;42.540;23.496;2023-01-01T00:53:49;95001.63;;;-0.27;89.05
35888;BME280;21990;42.540;23.496;2023-01-01T00:56:14;95017.31;;;-0.21;90.19
35888;BME280;21990;42.540;23.496;2023-01-01T00:58:40;95007.00;;;-0.20;90.44
35888;BME280;21990;42.540;23.496;2023-01-01T01:01:05;95012.63;;;-0.24;89.64
35888;BME280;21990;42.540;23.496;2023-01-01T01:03:31;95005.75;;;-0.35;90.46
35888;BME280;21990;42.540;23.496;2023-01-01T01:05:58;94999.75;;;-0.34;91.26
35888;BME280;21990;42.540;23.496;2023-01-01T01:08:25;94995.31;;;-0.28;91.77
35888;BME280;21990;42.540;23.496;2023-01-01T01:10:52;94990.59;;;-0.31;90.89
35888;BME280;21990;42.540;23.496;2023-01-01T01:13:17;94992.47;;;-0.44;91.89
35888;BME280;21990;42.540;23.496;2023-01-01T01:15:43;94991.63;;;-0.41;92.20
35888;BME280;21990;42.540;23.496;2023-01-01T01:18:09;94984.34;;;-0.35;92.27
35888;BME280;21990;42.540;23.496;2023-01-01T01:20:34;94975.53;;;-0.30;92.18
35888;BME280;21990;42.540;23.496;2023-01-01T01:23:00;94997.38;;;-0.32;92.66
35888;BME280;21990;42.540;23.496;2023-01-01T01:25:25;94987.56;;;-0.36;92.43
35888;BME280;21990;42.540;23.496;2023-01-01T01:27:51;94986.00;;;-0.37;92.12
35888;BME280;21990;42.540;23.496;2023-01-01T01:30:17;94987.28;;;-0.42;92.17
35888;BME280;21990;42.540;23.496;2023-01-01T01:32:42;94982.09;;;-0.40;92.17
35888;BME280;21990;42.540;23.496;2023-01-01T01:35:08;94975.41;;;-0.42;92.52
35888;BME280;21990;42.540;23.496;2023-01-01T01:37:33;94975.78;;;-0.40;93.24
35888;BME280;21990;42.540;23.496;2023-01-01T01:39:59;94979.69;;;-0.38;93.67
35888;BME280;21990;42.540;23.496;2023-01-01T01:42:24;94979.59;;;-0.34;94.04
35888;BME280;21990;42.540;23.496;2023-01-01T01:44:58;94979.19;;;-0.33;93.39
35888;BME280;21990;42.540;23.496;2023-01-01T01:50:08;94976.13;;;-0.58;92.71
35888;BME280;21990;42.540;23.496;2023-01-01T01:52:38;94986.94;;;-0.64;92.79
35888;BME280;21990;42.540;23.496;2023-01-01T01:55:07;94995.31;;;-0.67;93.10
35888;BME280;21990;42.540;23.496;2023-01-01T01:57:33;94986.50;;;-0.62;92.72
35888;BME280;21990;42.540;23.496;2023-01-01T02:00:00;94995.75;;;-0.69;92.77
35888;BME280;21990;42.540;23.496;2023-01-01T02:02:52;94993.97;;;-0.99;94.41
35888;BME280;21990;42.540;23.496;2023-01-01T02:05:20;94988.47;;;-1.22;96.02
35888;BME280;21990;42.540;23.496;2023-01-01T02:07:47;94986.69;;;-1.12;96.65
35888;BME280;21990;42.540;23.496;2023-01-01T02:10:13;94989.97;;;-1.17;96.63
35888;BME280;21990;42.540;23.496;2023-01-01T02:12:38;94985.91;;;-1.13;96.68
35888;BME280;21990;42.540;23.496;2023-01-01T02:15:05;94993.25;;;-1.03;96.86
35888;BME280;21990;42.540;23.496;2023-01-01T02:17:42;94981.88;;;-0.88;96.28
35888;BME280;21990;42.540;23.496;2023-01-01T02:20:32;94978.94;;;-0.78;95.96
35888;BME280;21990;42.540;23.496;2023-01-01T02:28:49;94995.47;;;-0.74;95.26
35888;BME280;21990;42.540;23.496;2023-01-01T02:31:23;94995.81;;;-0.72;94.77
35888;BME280;21990;42.540;23.496;2023-01-01T02:33:53;94991.84;;;-0.71;94.55
35888;BME280;21990;42.540;23.496;2023-01-01T02:36:21;94993.84;;;-0.72;94.17
35888;BME280;21990;42.540;23.496;2023-01-01T02:38:50;94992.56;;;-0.67;93.77
35888;BME280;21990;42.540;23.496;2023-01-01T02:41:26;94998.03;;;-0.64;92.69
35888;BME280;21990;42.540;23.496;2023-01-01T02:43:53;94999.00;;;-0.74;92.86
35888;BME280;21990;42.540;23.496;2023-01-01T02:46:18;95001.13;;;-0.81;93.05
35888;BME280;21990;42.540;23.496;2023-01-01T02:48:49;95007.44;;;-0.81;93.07
35888;BME280;21990;42.540;23.496;2023-01-01T02:56:49;94997.38;;;-0.71;92.22
35888;BME280;21990;42.540;23.496;2023-01-01T02:59:22;95001.34;;;-0.92;92.00
35888;BME280;21990;42.540;23.496;2023-01-01T03:05:05;94995.44;;;-0.94;93.24
35888;BME280;21990;42.540;23.496;2023-01-01T03:10:56;94993.81;;;-0.91;93.90
35888;BME280;21990;42.540;23.496;2023-01-01T03:16:15;94985.66;;;-0.79;93.95
35888;BME280;21990;42.540;23.496;2023-01-01T03:19:06;94989.63;;;-0.80;94.21
35888;BME280;21990;42.540;23.496;2023-01-01T03:24:26;94996.66;;;-0.95;94.74
35888;BME280;21990;42.540;23.496;2023-01-01T03:26:58;94997.34;;;-1.11;95.01
35888;BME280;21990;42.540;23.496;2023-01-01T03:29:28;94992.75;;;-0.98;94.83
35888;BME280;21990;42.540;23.496;2023-01-01T03:31:57;94983.59;;;-0.94;94.48
35888;BME280;21990;42.540;23.496;2023-01-01T03:34:34;94987.00;;;-0.87;93.54
35888;BME280;21990;42.540;23.496;2023-01-01T03:37:05;94992.47;;;-0.83;92.54
35888;BME280;21990;42.540;23.496;2023-01-01T03:39:52;94989.63;;;-0.80;92.58
35888;BME280;21990;42.540;23.496;2023-01-01T03:42:40;94982.59;;;-0.84;92.54
35888;BME280;21990;42.540;23.496;2023-01-01T03:45:12;94998.78;;;-0.83;92.71
35888;BME280;21990;42.540;23.496;2023-01-01T03:47:41;94988.59;;;-0.86;93.18
35888;BME280;21990;42.540;23.496;2023-01-01T03:50:08;94985.81;;;-0.86;93.26
35888;BME280;21990;42.540;23.496;2023-01-01T03:52:45;94990.88;;;-1.04;92.93
35888;BME280;21990;42.540;23.496;2023-01-01T03:55:18;94994.72;;;-1.18;93.49
35888;BME280;21990;42.540;23.496;2023-01-01T03:58:06;94979.88;;;-1.08;93.24
35888;BME280;21990;42.540;23.496;2023-01-01T04:00:37;94989.53;;;-0.96;92.90
35888;BME280;21990;42.540;23.496;2023-01-01T04:03:25;94989.06;;;-0.91;92.32
35888;BME280;21990;42.540;23.496;2023-01-01T04:05:51;94987.88;;;-0.90;92.08
35888;BME280;21990;42.540;23.496;2023-01-01T04:08:17;94987.81;;;-0.86;92.16
35888;BME280;21990;42.540;23.496;2023-01-01T04:10:50;94989.34;;;-0.85;92.26
35888;BME280;21990;42.540;23.496;2023-01-01T04:13:18;94997.78;;;-0.92;92.47
35888;BME280;21990;42.540;23.496;2023-01-01T04:15:44;94983.16;;;-0.93;91.86
35888;BME280;21990;42.540;23.496;2023-01-01T04:18:10;94987.94;;;-0.93;91.37
35888;BME280;21990;42.540;23.496;2023-01-01T04:20:35;94997.72;;;-0.89;90.96
35888;BME280;21990;42.540;23.496;2023-01-01T04:23:01;94994.22;;;-0.93;90.89
35888;BME280;21990;42.540;23.496;2023-01-01T04:25:27;94998.69;;;-0.99;90.92
35888;BME280;21990;42.540;23.496;2023-01-01T04:27:53;94997.00;;;-0.93;90.71
35888;BME280;21990;42.540;23.496;2023-01-01T04:30:19;94999.69;;;-1.09;90.42
35888;BME280;21990;42.540;23.496;2023-01-01T04:32:45;94996.63;;;-1.38;91.31
35888;BME280;21990;42.540;23.496;2023-01-01T04:35:12;95004.56;;;-1.40;91.82
35888;BME280;21990;42.540;23.496;2023-01-01T04:37:41;94994.22;;;-1.36;92.53
35888;BME280;21990;42.540;23.496;2023-01-01T04:40:09;95005.84;;;-1.21;91.41
35888;BME280;21990;42.540;23.496;2023-01-01T04:42:35;95007.34;;;-1.17;91.59
35888;BME280;21990;42.540;23.496;2023-01-01T04:45:01;94999.78;;;-1.16;91.02
35888;BME280;21990;42.540;23.496;2023-01-01T04:47:26;95007.28;;;-1.13;90.93
35888;BME280;21990;42.540;23.496;2023-01-01T04:49:53;95008.81;;;-1.12;91.44
35888;BME280;21990;42.540;23.496;2023-01-01T04:52:18;95007.22;;;-1.10;92.11
35888;BME280;21990;42.540;23.496;2023-01-01T04:54:44;94998.06;;;-1.07;91.08
35888;BME280;21990;42.540;23.496;2023-01-01T04:57:09;95000.88;;;-1.10;90.59
35888;BME280;21990;42.540;23.496;2023-01-01T04:59:35;95008.47;;;-1.14;90.73
35888;BME280;21990;42.540;23.496;2023-01-01T05:02:01;94998.66;;;-1.19;90.65
35888;BME280;21990;42.540;23.496;2023-01-01T05:04:26;95005.69;;;-1.14;90.03
35888;BME280;21990;42.540;23.496;2023-01-01T05:06:52;95000.25;;;-1.18;90.27
35888;BME280;21990;42.540;23.496;2023-01-01T05:09:17;95000.66;;;-1.19;90.36
35888;BME280;21990;42.540;23.496;2023-01-01T05:11:43;95006.25;;;-1.23;90.19
35888;BME280;21990;42.540;23.496;2023-01-01T05:14:08;94999.22;;;-1.27;90.52
35888;BME280;21990;42.540;23.496;2023-01-01T05:16:36;95005.91;;;-1.25;90.29
35888;BME280;21990;42.540;23.496;2023-01-01T05:19:03;95012.97;;;-1.24;89.12
35888;BME280;21990;42.540;23.496;2023-01-01T05:21:31;95006.72;;;-1.28;89.50
35888;BME280;21990;42.540;23.496;2023-01-01T05:23:59;95007.56;;;-1.31;88.96
35888;BME280;21990;42.540;23.496;2023-01-01T05:26:30;94999.34;;;-1.34;89.25
35888;BME280;21990;42.540;23.496;2023-01-01T05:28:57;95007.22;;;-1.33;89.85
35888;BME280;21990;42.540;23.496;2023-01-01T05:31:25;95007.56;;;-1.31;90.20
35888;BME280;21990;42.540;23.496;2023-01-01T05:33:51;95004.47;;;-1.33;90.41
35888;BME280;21990;42.540;23.496;2023-01-01T05:36:28;94998.69;;;-1.42;90.18
35888;BME280;21990;42.540;23.496;2023-01-01T05:38:54;95004.56;;;-1.40;89.85
35888;BME280;21990;42.540;23.496;2023-01-01T05:41:21;95002.16;;;-1.38;90.01
35888;BME280;21990;42.540;23.496;2023-01-01T05:43:47;95007.31;;;-1.40;89.64
35888;BME280;21990;42.540;23.496;2023-01-01T05:46:17;95006.56;;;-1.40;89.34
35888;BME280;21990;42.540;23.496;2023-01-01T05:48:43;95014.41;;;-1.39;89.16
35888;BME280;21990;42.540;23.496;2023-01-01T05:51:10;95012.44;;;-1.38;88.74
35888;BME280;21990;42.540;23.496;2023-01-01T05:53:36;95001.78;;;-1.40;88.99
35888;BME280;21990;42.540;23.496;2023-01-01T05:56:02;95002.22;;;-1.41;89.19
35888;BME280;21990;42.540;23.496;2023-01-01T05:58:30;95010.53;;;-1.41;89.16
35888;BME280;21990;42.540;23.496;2023-01-01T06:00:56;94993.63;;;-1.47;89.64
35888;BME280;21990;42.540;23.496;2023-01-01T06:03:22;95003.44;;;-1.42;89.81
35888;BME280;21990;42.540;23.496;2023-01-01T06:05:47;95007.38;;;-1.44;89.60
35888;BME280;21990;42.540;23.496;2023-01-01T06:08:13;95003.19;;;-1.52;89.69
35888;BME280;21990;42.540;23.496;2023-01-01T06:10:39;95004.06;;;-1.81;90.04
35888;BME280;21990;42.540;23.496;2023-01-01T06:13:04;94992.97;;;-1.78;90.97
35888;BME280;21990;42.540;23.496;2023-01-01T06:15:30;94997.53;;;-1.68;91.33
35888;BME280;21990;42.540;23.496;2023-01-01T06:17:57;95005.75;;;-1.87;91.23
35888;BME280;21990;42.540;23.496;2023-01-01T06:20:23;94999.66;;;-1.75;91.33
35888;BME280;21990;42.540;23.496;2023-01-01T06:22:49;95003.94;;;-1.74;91.83
35888;BME280;21990;42.540;23.496;2023-01-01T06:25:15;94997.59;;;-1.71;92.05
35888;BME280;21990;42.540;23.496;2023-01-01T06:27:40;95008.22;;;-1.70;92.43
35888;BME280;21990;42.540;23.496;2023-01-01T06:30:06;95007.88;;;-1.49;92.46
35888;BME280;21990;42.540;23.496;2023-01-01T06:32:33;95011.78;;;-1.23;91.97
35888;BME280;21990;42.540;23.496;2023-01-01T06:34:58;95019.47;;;-1.11;90.82
35888;BME280;21990;42.540;23.496;2023-01-01T06:37:24;95016.09;;;-0.99;91.04
35888;BME280;21990;42.540;23.496;2023-01-01T06:39:49;95012.13;;;-0.98;90.32
35888;BME280;21990;42.540;23.496;2023-01-01T06:42:15;95015.88;;;-0.88;89.86
35888;BME280;21990;42.540;23.496;2023-01-01T06:44:40;95023.56;;;-0.76;90.58
35888;BME280;21990;42.540;23.496;2023-01-01T06:47:06;95026.56;;;-0.67;91.10
35888;BME280;21990;42.540;23.496;2023-01-01T06:49:32;95025.22;;;-0.59;92.21
35888;BME280;21990;42.540;23.496;2023-01-01T06:51:57;95022.78;;;-0.57;92.34
35888;BME280;21990;42.540;23.496;2023-01-01T06:54:23;95032.66;;;-0.36;92.38
35888;BME280;21990;42.540;23.496;2023-01-01T06:56:48;95028.81;;;-0.22;92.93
35888;BME280;21990;42.540;23.496;2023-01-01T06:59:15;95035.88;;;0.34;97.61
35888;BME280;21990;42.540;23.496;2023-01-01T07:01:41;95025.50;;;1.32;98.38
35888;BME280;21990;42.540;23.496;2023-01-01T07:04:10;95029.59;;;1.98;96.14
35888;BME280;21990;42.540;23.496;2023-01-01T07:06:37;95023.28;;;2.10;91.68
35888;BME280;21990;42.540;23.496;2023-01-01T07:09:04;95025.69;;;2.08;89.29
35888;BME280;21990;42.540;23.496;2023-01-01T07:11:30;95028.84;;;2.10;90.32
35888;BME280;21990;42.540;23.496;2023-01-01T07:13:56;95030.00;;;1.96;88.68
35888;BME280;21990;42.540;23.496;2023-01-01T07:16:22;95035.88;;;1.85;87.51
35888;BME280;21990;42.540;23.496;2023-01-01T07:18:48;95036.06;;;1.37;86.95
35888;BME280;21990;42.540;23.496;2023-01-01T07:21:52;95034.06;;;0.92;87.91
35888;BME280;21990;42.540;23.496;2023-01-01T07:24:17;95038.03;;;0.75;89.30
35888;BME280;21990;42.540;23.496;2023-01-01T07:26:43;95038.56;;;0.86;89.48
35888;BME280;21990;42.540;23.496;2023-01-01T07:29:10;95032.50;;;0.91;89.54
35888;BME280;21990;42.540;23.496;2023-01-01T07:31:38;95034.28;;;0.98;91.18
35888;BME280;21990;42.540;23.496;2023-01-01T07:34:06;95038.91;;;0.88;92.10
35888;BME280;21990;42.540;23.496;2023-01-01T07:36:32;95043.22;;;1.06;93.93
35888;BME280;21990;42.540;23.496;2023-01-01T07:38:58;95037.06;;;1.14;91.79
35888;BME280;21990;42.540;23.496;2023-01-01T07:41:23;95035.66;;;1.22;92.36
35888;BME280;21990;42.540;23.496;2023-01-01T07:43:49;95030.75;;;1.42;93.66
35888;BME280;21990;42.540;23.496;2023-01-01T07:46:20;95034.50;;;1.65;96.48
35888;BME280;21990;42.540;23.496;2023-01-01T07:48:46;95033.44;;;1.87;95.90
35888;BME280;21990;42.540;23.496;2023-01-01T07:51:13;95030.81;;;2.09;96.14
35888;BME280;21990;42.540;23.496;2023-01-01T07:53:41;95027.84;;;2.29;95.59
35888;BME280;21990;42.540;23.496;2023-01-01T07:56:07;95023.63;;;2.37;95.67
35888;BME280;21990;42.540;23.496;2023-01-01T07:58:33;95018.38;;;2.39;94.32
35888;BME280;21990;42.540;23.496;2023-01-01T08:00:58;95015.16;;;2.41;95.14
35888;BME280;21990;42.540;23.496;2023-01-01T08:03:26;95018.50;;;2.35;94.79
35888;BME280;21990;42.540;23.496;2023-01-01T08:05:51;95031.28;;;2.20;94.15
35888;BME280;21990;42.540;23.496;2023-01-01T08:08:17;95027.91;;;2.00;94.04
35888;BME280;21990;42.540;23.496;2023-01-01T08:10:42;95035.56;;;1.96;94.73
35888;BME280;21990;42.540;23.496;2023-01-01T08:13:08;95042.25;;;1.99;95.73
35888;BME280;21990;42.540;23.496;2023-01-01T08:15:34;95033.44;;;1.75;96.27
35888;BME280;21990;42.540;23.496;2023-01-01T08:18:01;95035.53;;;1.83;96.99
35888;BME280;21990;42.540;23.496;2023-01-01T08:20:29;95036.47;;;1.93;97.73
35888;BME280;21990;42.540;23.496;2023-01-01T08:22:58;95029.59;;;2.10;98.55
35888;BME280;21990;42.540;23.496;2023-01-01T08:25:25;95036.72;;;2.24;98.79
35888;BME280;21990;42.540;23.496;2023-01-01T08:27:51;95034.97;;;2.43;99.51
35888;BME280;21990;42.540;23.496;2023-01-01T08:30:16;95025.63;;;2.62;99.54
35888;BME280;21990;42.540;23.496;2023-01-01T08:32:42;95024.47;;;2.84;99.56
35888;BME280;21990;42.540;23.496;2023-01-01T08:35:10;95018.31;;;3.02;98.91
35888;BME280;21990;42.540;23.496;2023-01-01T08:37:36;95025.19;;;3.23;98.68
35888;BME280;21990;42.540;23.496;2023-01-01T08:40:08;95021.00;;;3.40;97.91
35888;BME280;21990;42.540;23.496;2023-01-01T08:42:34;95019.91;;;3.59;97.77
35888;BME280;21990;42.540;23.496;2023-01-01T08:45:01;95024.66;;;3.71;97.51
35888;BME280;21990;42.540;23.496;2023-01-01T08:47:27;95017.34;;;3.87;97.52
35888;BME280;21990;42.540;23.496;2023-01-01T08:49:52;95022.13;;;4.08;97.05
35888;BME280;21990;42.540;23.496;2023-01-01T08:52:18;95022.31;;;4.13;94.95
35888;BME280;21990;42.540;23.496;2023-01-01T08:54:44;95018.66;;;4.25;96.16
35888;BME280;21990;42.540;23.496;2023-01-01T08:57:11;95015.44;;;4.36;95.26
35888;BME280;21990;42.540;23.496;2023-01-01T08:59:37;95008.84;;;4.52;96.03
35888;BME280;21990;42.540;23.496;2023-01-01T09:02:03;95009.53;;;4.65;95.94
35888;BME280;21990;42.540;23.496;2023-01-01T09:04:29;95013.31;;;4.80;95.53
35888;BME280;21990;42.540;23.496;2023-01-01T09:06:54;94999.09;;;4.96;96.04
35888;BME280;21990;42.540;23.496;2023-01-01T09:09:22;94998.81;;;5.12;95.76
35888;BME280;21990;42.540;23.496;2023-01-01T09:11:52;94991.22;;;5.22;95.14
35888;BME280;21990;42.540;23.496;2023-01-01T09:14:19;94982.69;;;5.35;95.14
35888;BME280;21990;42.540;23.496;2023-01-01T09:16:45;94986.59;;;5.55;95.01
35888;BME280;21990;42.540;23.496;2023-01-01T09:19:11;94978.06;;;5.68;94.80
35888;BME280;21990;42.540;23.496;2023-01-01T09:21:36;94969.47;;;5.81;94.97
35888;BME280;21990;42.540;23.496;2023-01-01T09:24:02;94972.13;;;5.93;94.64
35888;BME280;21990;42.540;23.496;2023-01-01T09:26:28;94965.59;;;6.05;94.76
35888;BME280;21990;42.540;23.496;2023-01-01T09:28:53;94962.78;;;6.14;95.22
35888;BME280;21990;42.540;23.496;2023-01-01T09:31:19;94961.94;;;6.23;94.90
35888;BME280;21990;42.540;23.496;2023-01-01T09:33:44;94969.72;;;6.28;93.42
35888;BME280;21990;42.540;23.496;2023-01-01T09:36:23;94961.16;;;6.32;93.05
35888;BME280;21990;42.540;23.496;2023-01-01T09:38:52;94956.31;;;6.41;94.02
35888;BME280;21990;42.540;23.496;2023-01-01T09:47:01;94956.84;;;6.63;93.28
35888;BME280;21990;42.540;23.496;2023-01-01T09:49:38;94951.66;;;6.71;95.09
35888;BME280;21990;42.540;23.496;2023-01-01T09:52:04;94942.44;;;6.80;93.60
35888;BME280;21990;42.540;23.496;2023-01-01T09:54:33;94940.94;;;6.93;93.11
35888;BME280;21990;42.540;23.496;2023-01-01T09:57:04;94937.69;;;6.95;93.15
35888;BME280;21990;42.540;23.496;2023-01-01T09:59:30;94926.88;;;7.02;93.32
35888;BME280;21990;42.540;23.496;2023-01-01T10:07:24;94920.72;;;7.37;92.27
35888;BME280;21990;42.540;23.496;2023-01-01T10:09:58;94915.69;;;7.41;91.63
35888;BME280;21990;42.540;23.496;2023-01-01T10:12:43;94912.34;;;7.51;92.30
35888;BME280;21990;42.540;23.496;2023-01-01T10:15:17;94922.03;;;7.65;90.72
35888;BME280;21990;42.540;23.496;2023-01-01T10:17:47;94919.31;;;7.71;90.30
35888;BME280;21990;42.540;23.496;2023-01-01T10:20:25;94918.19;;;7.77;91.04
35888;BME280;21990;42.540;23.496;2023-01-01T10:23:06;94910.38;;;7.81;92.07
35888;BME280;21990;42.540;23.496;2023-01-01T10:25:38;94903.38;;;7.91;92.83
35888;BME280;21990;42.540;23.496;2023-01-01T10:28:12;94899.91;;;7.96;90.34
35888;BME280;21990;42.540;23.496;2023-01-01T10:30:40;94898.47;;;8.01;89.96
35888;BME280;21990;42.540;23.496;2023-01-01T10:33:15;94897.50;;;8.04;88.73
35888;BME280;21990;42.540;23.496;2023-01-01T10:35:44;94891.28;;;8.00;88.43
35888;BME280;21990;42.540;23.496;2023-01-01T10:38:21;94894.28;;;8.11;91.64
35888;BME280;21990;42.540;23.496;2023-01-01T10:40:47;94892.91;;;8.21;89.80
35888;BME280;21990;42.540;23.496;2023-01-01T10:43:12;94888.38;;;8.24;88.17
35888;BME280;21990;42.540;23.496;2023-01-01T10:45:45;94876.66;;;8.25;87.21
35888;BME280;21990;42.540;23.496;2023-01-01T10:48:19;94882.09;;;8.29;88.28
35888;BME280;21990;42.540;23.496;2023-01-01T10:53:37;94871.16;;;8.31;87.17
35888;BME280;21990;42.540;23.496;2023-01-01T10:56:13;94868.94;;;8.35;89.39
35888;BME280;21990;42.540;23.496;2023-01-01T10:58:45;94861.97;;;8.30;87.94
35888;BME280;21990;42.540;23.496;2023-01-01T11:06:38;94841.41;;;8.39;84.91
35888;BME280;21990;42.540;23.496;2023-01-01T11:09:25;94843.25;;;8.42;84.88
35888;BME280;21990;42.540;23.496;2023-01-01T11:11:59;94839.09;;;8.37;83.95
35888;BME280;21990;42.540;23.496;2023-01-01T11:14:28;94837.81;;;8.38;83.70
35888;BME280;21990;42.540;23.496;2023-01-01T11:16:55;94837.56;;;8.36;83.48
35888;BME280;21990;42.540;23.496;2023-01-01T11:19:26;94838.25;;;8.31;83.71
35888;BME280;21990;42.540;23.496;2023-01-01T11:21:53;94832.78;;;8.28;83.79
35888;BME280;21990;42.540;23.496;2023-01-01T11:24:22;94835.91;;;8.30;83.60
35888;BME280;21990;42.540;23.496;2023-01-01T11:26:50;94830.00;;;8.28;83.96
35888;BME280;21990;42.540;23.496;2023-01-01T11:29:24;94822.25;;;8.23;83.74
35888;BME280;21990;42.540;23.496;2023-01-01T11:31:51;94822.44;;;8.19;83.71
35888;BME280;21990;42.540;23.496;2023-01-01T11:36:42;94820.94;;;8.03;81.75
35888;BME280;21990;42.540;23.496;2023-01-01T11:39:24;94818.59;;;8.02;83.44
35888;BME280;21990;42.540;23.496;2023-01-01T11:41:53;94816.28;;;8.00;83.63
35888;BME280;21990;42.540;23.496;2023-01-01T11:44:41;94817.28;;;7.97;83.54
35888;BME280;21990;42.540;23.496;2023-01-01T11:47:35;94814.06;;;7.90;84.30
35888;BME280;21990;42.540;23.496;2023-01-01T11:50:22;94811.44;;;7.86;85.17
35888;BME280;21990;42.540;23.496;2023-01-01T11:52:50;94795.59;;;7.83;85.92
35888;BME280;21990;42.540;23.496;2023-01-01T11:58:18;94789.59;;;7.76;86.02
35888;BME280;21990;42.540;23.496;2023-01-01T12:00:49;94791.63;;;7.75;85.78
35888;BME280;21990;42.540;23.496;2023-01-01T12:08:50;94776.63;;;7.63;86.22
35888;BME280;21990;42.540;23.496;2023-01-01T12:11:38;94777.63;;;7.60;86.52
35888;BME280;21990;42.540;23.496;2023-01-01T12:19:39;94768.16;;;7.58;86.99
35888;BME280;21990;42.540;23.496;2023-01-01T12:22:14;94769.50;;;7.48;85.90
35888;BME280;21990;42.540;23.496;2023-01-01T12:24:40;94774.25;;;7.42;86.54
35888;BME280;21990;42.540;23.496;2023-01-01T12:27:33;94764.75;;;7.39;87.00
35888;BME280;21990;42.540;23.496;2023-01-01T12:33:02;94772.28;;;7.33;87.67
35888;BME280;21990;42.540;23.496;2023-01-01T12:36:00;94764.34;;;7.32;87.02
35888;BME280;21990;42.540;23.496;2023-01-01T12:43:44;94766.19;;;7.20;87.77
35888;BME280;21990;42.540;23.496;2023-01-01T12:51:53;94774.78;;;7.16;88.58
35888;BME280;21990;42.540;23.496;2023-01-01T12:57:09;94779.34;;;7.14;88.19
35888;BME280;21990;42.540;23.496;2023-01-01T12:59:41;94770.81;;;7.08;88.06
35888;BME280;21990;42.540;23.496;2023-01-01T13:02:25;94773.03;;;7.04;88.02
35888;BME280;21990;42.540;23.496;2023-01-01T13:05:12;94778.81;;;7.01;88.45
35888;BME280;21990;42.540;23.496;2023-01-01T13:07:42;94771.56;;;6.94;88.57
35888;BME280;21990;42.540;23.496;2023-01-01T13:13:04;94781.59;;;6.86;88.42
35888;BME280;21990;42.540;23.496;2023-01-01T13:15:42;94783.03;;;6.82;88.88
35888;BME280;21990;42.540;23.496;2023-01-01T13:21:03;94787.44;;;6.74;88.55
35888;BME280;21990;42.540;23.496;2023-01-01T13:45:31;94792.19;;;6.44;88.14
35888;BME280;21990;42.540;23.496;2023-01-01T13:48:18;94795.94;;;6.41;87.80
35888;BME280;21990;42.540;23.496;2023-01-01T13:50:50;94797.06;;;6.34;88.32
35888;BME280;21990;42.540;23.496;2023-01-01T13:53:39;94805.63;;;6.31;87.57
35888;BME280;21990;42.540;23.496;2023-01-01T14:01:22;94806.59;;;6.28;88.00
35888;BME280;21990;42.540;23.496;2023-01-01T14:03:53;94808.31;;;6.25;87.09
35888;BME280;21990;42.540;23.496;2023-01-01T14:06:26;94804.13;;;6.20;86.47
35888;BME280;21990;42.540;23.496;2023-01-01T14:09:10;94811.47;;;6.18;86.49
35888;BME280;21990;42.540;23.496;2023-01-01T14:11:40;94804.50;;;6.13;86.88
35888;BME280;21990;42.540;23.496;2023-01-01T14:14:25;94808.72;;;6.09;87.12
35888;BME280;21990;42.540;23.496;2023-01-01T14:16:54;94808.56;;;6.03;87.09
35888;BME280;21990;42.540;23.496;2023-01-01T14:19:23;94812.63;;;6.02;87.38
35888;BME280;21990;42.540;23.496;2023-01-01T14:21:52;94799.56;;;5.99;87.46
35888;BME280;21990;42.540;23.496;2023-01-01T14:24:27;94808.91;;;5.96;87.07
35888;BME280;21990;42.540;23.496;2023-01-01T14:26:52;94812.06;;;5.89;87.24
35888;BME280;21990;42.540;23.496;2023-01-01T14:29:28;94807.25;;;5.81;87.71
35888;BME280;21990;42.540;23.496;2023-01-01T14:32:00;94807.72;;;5.79;88.46
35888;BME280;21990;42.540;23.496;2023-01-01T14:34:41;94810.53;;;5.79;88.41
35888;BME280;21990;42.540;23.496;2023-01-01T14:37:18;94818.75;;;5.83;88.67
35888;BME280;21990;42.540;23.496;2023-01-01T14:39:45;94815.47;;;5.84;88.62
35888;BME280;21990;42.540;23.496;2023-01-01T14:42:12;94817.66;;;5.80;88.16
35888;BME280;21990;42.540;23.496;2023-01-01T14:44:42;94819.84;;;5.76;87.75
35888;BME280;21990;42.540;23.496;2023-01-01T14:47:23;94818.16;;;5.69;87.48
35888;BME280;21990;42.540;23.496;2023-01-01T14:49:51;94817.78;;;5.44;87.72
35888;BME280;21990;42.540;23.496;2023-01-01T14:52:27;94814.03;;;5.38;88.12
35888;BME280;21990;42.540;23.496;2023-01-01T14:54:55;94814.38;;;5.40;88.35
35888;BME280;21990;42.540;23.496;2023-01-01T14:57:23;94821.19;;;5.39;88.20